Welcome to Northern Hawkes Bay. New Zealand.
PWS Header
      nz Flag



Hit Counter


W3C Valid W3C Valid logo


    Wairoa

Select any of the Stations below to visit their websites.










Historic Data from Weather Underground
Select the location of interest below. Wairoa is the default. Please have patience, this Data is slow to load in.
Northern Hawkes Bay Historical Data
Daily Summary for March 18, 2017 Units:  Metric    English   Both
« Previous Day
Next Day »
Daily Weekly Monthly Yearly Custom
  High: Low: Average:
Temperature: 22.7 °C 12.2 °C 16.8 °C
Dew Point: 17.6 °C 11.7 °C 14.3 °C
Humidity: 99% 64% 86%
Wind Speed: 30.6km/h 0.0km/h 11.8km/h
Wind Gust: 47.9km/h - -
Wind- - West
Pressure: 1028.0 hPa 1020.9 hPa -
Precipitation: 0.3 mm    
Historical Graphs
 
 
Tabular Data for March 18, 2017
Time Temperature Dew Point Pressure Wind Wind Speed Wind Gust Humidity Rainfall Rate (Hourly) solar
00:02 15.2 °C 14.2 °C 1024.3 hPa Calm     94% 0.0 mm 0 W/m2
00:07 15.2 °C 14.2 °C 1024.6 hPa Calm     94% 0.0 mm 0 W/m2
00:12 15.2 °C 14.2 °C 1024.3 hPa Calm   3.5 km/h 94% 0.0 mm 0 W/m2
00:17 15.1 °C 14.2 °C 1024.3 hPa Calm   3.5 km/h 94% 0.0 mm 0 W/m2
00:22 15.1 °C 14.2 °C 1024.3 hPa Calm     94% 0.0 mm 0 W/m2
00:27 15.0 °C 14.1 °C 1024.3 hPa Calm     94% 0.0 mm 0 W/m2
00:32 15.0 °C 14.1 °C 1024.3 hPa NW 3.5 km/h 7.2 km/h 94% 0.0 mm 0 W/m2
00:37 15.0 °C 14.1 °C 1024.3 hPa NW 1.1 km/h 7.2 km/h 94% 0.0 mm 0 W/m2
00:42 14.9 °C 14.1 °C 1024.3 hPa NW 3.5 km/h 7.2 km/h 95% 0.0 mm 0 W/m2
00:47 14.9 °C 14.1 °C 1024.3 hPa NW 5.0 km/h 6.1 km/h 95% 0.0 mm 0 W/m2
00:52 14.8 °C 14.0 °C 1023.9 hPa NW 5.0 km/h 7.2 km/h 95% 0.0 mm 0 W/m2
00:57 14.8 °C 14.0 °C 1023.9 hPa NW 6.1 km/h 8.7 km/h 95% 0.0 mm 0 W/m2
01:02 14.8 °C 14.2 °C 1024.3 hPa NW 3.5 km/h 8.7 km/h 96% 0.0 mm 0 W/m2
01:07 14.8 °C 14.2 °C 1024.3 hPa NNW 5.0 km/h 9.7 km/h 96% 0.0 mm 0 W/m2
01:12 14.8 °C 14.2 °C 1024.3 hPa NNW 2.6 km/h 9.7 km/h 96% 0.0 mm 0 W/m2
01:17 14.7 °C 14.1 °C 1023.9 hPa NNW 3.5 km/h 8.7 km/h 96% 0.0 mm 0 W/m2
01:22 14.7 °C 14.1 °C 1023.9 hPa NNW 6.1 km/h 9.7 km/h 96% 0.0 mm 0 W/m2
01:27 14.7 °C 14.1 °C 1023.9 hPa NNW 6.1 km/h 9.7 km/h 96% 0.0 mm 0 W/m2
01:32 14.7 °C 14.1 °C 1023.9 hPa NNW 5.0 km/h 8.7 km/h 96% 0.0 mm 0 W/m2
01:37 14.6 °C 14.0 °C 1023.9 hPa NNW 5.0 km/h 8.7 km/h 96% 0.0 mm 0 W/m2
01:42 14.6 °C 14.0 °C 1023.9 hPa NNW 5.0 km/h 8.7 km/h 96% 0.0 mm 0 W/m2
01:47 14.6 °C 14.0 °C 1023.9 hPa NNW 2.6 km/h 9.7 km/h 96% 0.0 mm 0 W/m2
01:52 14.5 °C 13.9 °C 1023.9 hPa NW 3.5 km/h 11.1 km/h 96% 0.0 mm 0 W/m2
01:57 14.5 °C 13.9 °C 1023.6 hPa NNW 5.0 km/h 11.1 km/h 96% 0.0 mm 0 W/m2
02:02 14.4 °C 13.8 °C 1023.9 hPa Calm   7.2 km/h 96% 0.0 mm 0 W/m2
02:07 14.4 °C 13.8 °C 1023.9 hPa NNW 2.6 km/h 7.2 km/h 96% 0.0 mm 0 W/m2
02:12 14.3 °C 13.7 °C 1023.6 hPa NNW 7.2 km/h 11.1 km/h 96% 0.0 mm 0 W/m2
02:17 14.4 °C 13.9 °C 1023.9 hPa NNW 6.1 km/h 11.1 km/h 97% 0.0 mm 0 W/m2
02:22 14.3 °C 13.8 °C 1023.6 hPa NNW 3.5 km/h 11.1 km/h 97% 0.0 mm 0 W/m2
02:27 14.3 °C 13.8 °C 1023.6 hPa NW 3.5 km/h 8.7 km/h 97% 0.0 mm 0 W/m2
02:32 14.2 °C 13.7 °C 1023.6 hPa NNW 7.2 km/h 9.7 km/h 97% 0.0 mm 0 W/m2
02:37 14.1 °C 13.6 °C 1023.6 hPa North 2.6 km/h 9.7 km/h 97% 0.0 mm 0 W/m2
02:42 14.1 °C 13.6 °C 1023.6 hPa NNW 3.5 km/h 9.7 km/h 97% 0.0 mm 0 W/m2
02:47 14.0 °C 13.6 °C 1023.6 hPa NNW 6.1 km/h 8.7 km/h 97% 0.0 mm 0 W/m2
02:52 14.0 °C 13.6 °C 1023.6 hPa NW 3.5 km/h 11.1 km/h 97% 0.0 mm 0 W/m2
02:57 14.0 °C 13.6 °C 1023.6 hPa NW 6.1 km/h 11.1 km/h 97% 0.0 mm 0 W/m2
03:02 14.0 °C 13.6 °C 1023.6 hPa NNW 2.6 km/h 9.7 km/h 97% 0.0 mm 0 W/m2
03:07 14.0 °C 13.6 °C 1023.2 hPa NNW 6.1 km/h 11.1 km/h 97% 0.0 mm 0 W/m2
03:12 14.0 °C 13.6 °C 1023.2 hPa NNW 1.1 km/h 11.1 km/h 97% 0.0 mm 0 W/m2
03:17 13.9 °C 13.8 °C 1023.2 hPa NNW 3.5 km/h 11.1 km/h 99% 0.0 mm 0 W/m2
03:22 13.8 °C 13.7 °C 1023.6 hPa NNW 3.5 km/h 8.7 km/h 99% 0.0 mm 0 W/m2
03:27 13.7 °C 13.6 °C 1023.2 hPa Calm   8.7 km/h 99% 0.0 mm 0 W/m2
03:32 13.6 °C 13.3 °C 1022.9 hPa NNW 3.5 km/h 5.0 km/h 98% 0.0 mm 0 W/m2
03:37 13.6 °C 13.4 °C 1023.2 hPa North 2.6 km/h 8.7 km/h 99% 0.0 mm 0 W/m2
03:42 13.6 °C 13.4 °C 1022.9 hPa NNW 2.6 km/h 9.7 km/h 99% 0.0 mm 0 W/m2
03:47 13.5 °C 13.3 °C 1022.9 hPa NNW 1.1 km/h 9.7 km/h 99% 0.0 mm 0 W/m2
03:52 13.5 °C 13.3 °C 1022.9 hPa NNW 5.0 km/h 6.1 km/h 99% 0.0 mm 0 W/m2
03:57 13.4 °C 13.3 °C 1022.6 hPa North 5.0 km/h 7.2 km/h 99% 0.0 mm 0 W/m2
04:02 13.4 °C 13.3 °C 1022.9 hPa NNW 3.5 km/h 7.2 km/h 99% 0.0 mm 0 W/m2
04:07 13.4 °C 13.3 °C 1022.6 hPa NNW 5.0 km/h 9.7 km/h 99% 0.0 mm 0 W/m2
04:12 13.4 °C 13.3 °C 1022.6 hPa NNW 6.1 km/h 9.7 km/h 99% 0.0 mm 0 W/m2
04:17 13.3 °C 13.2 °C 1022.6 hPa NNW 5.0 km/h 8.7 km/h 99% 0.0 mm 0 W/m2
04:22 13.3 °C 13.2 °C 1022.6 hPa NNW 5.0 km/h 8.7 km/h 99% 0.0 mm 0 W/m2
04:27 13.3 °C 13.2 °C 1022.6 hPa NW 3.5 km/h 8.7 km/h 99% 0.0 mm 0 W/m2
04:32 13.2 °C 13.1 °C 1022.6 hPa NW 3.5 km/h 8.7 km/h 99% 0.0 mm 0 W/m2
04:37 13.1 °C 12.9 °C 1022.2 hPa NW 5.0 km/h 8.7 km/h 99% 0.0 mm 0 W/m2
04:42 13.0 °C 12.8 °C 1022.6 hPa Calm   8.7 km/h 99% 0.0 mm 0 W/m2
04:47 12.9 °C 12.4 °C 1022.2 hPa NW 1.1 km/h 6.1 km/h 97% 0.0 mm 0 W/m2
04:52 12.9 °C 12.4 °C 1022.2 hPa Calm   6.1 km/h 97% 0.0 mm 0 W/m2
04:57 12.9 °C 12.4 °C 1022.2 hPa Calm   5.0 km/h 97% 0.0 mm 0 W/m2
05:02 12.9 °C 12.4 °C 1022.2 hPa Calm   3.5 km/h 97% 0.0 mm 0 W/m2
05:07 12.9 °C 12.4 °C 1022.2 hPa Calm   5.0 km/h 97% 0.0 mm 0 W/m2
05:12 12.9 °C 12.4 °C 1021.9 hPa NNW 6.1 km/h 7.2 km/h 97% 0.0 mm 0 W/m2
05:30 12.9 °C 12.4 °C 1021.9 hPa NNW 5.0 km/h 11.1 km/h 97% 0.0 mm 0 W/m2
05:35 12.9 °C 12.4 °C 1021.6 hPa NW 7.2 km/h 12.2 km/h 97% 0.0 mm 0 W/m2
05:40 12.8 °C 12.3 °C 1021.6 hPa NW 6.1 km/h 13.4 km/h 97% 0.0 mm 0 W/m2
05:46 12.8 °C 12.3 °C 1021.6 hPa NW 5.0 km/h 13.4 km/h 97% 0.0 mm 0 W/m2
05:51 12.7 °C 12.2 °C 1021.6 hPa NW 5.0 km/h 11.1 km/h 97% 0.0 mm 0 W/m2
05:56 12.7 °C 12.2 °C 1021.6 hPa NW 5.0 km/h 11.1 km/h 97% 0.0 mm 0 W/m2
06:01 12.6 °C 12.2 °C 1021.9 hPa NW 6.1 km/h 9.7 km/h 97% 0.0 mm 0 W/m2
06:06 12.6 °C 12.2 °C 1021.6 hPa NNW 6.1 km/h 11.1 km/h 97% 0.0 mm 0 W/m2
06:11 12.6 °C 12.2 °C 1021.6 hPa NNW 3.5 km/h 12.2 km/h 97% 0.0 mm 0 W/m2
06:16 12.6 °C 12.2 °C 1021.6 hPa NNW 7.2 km/h 12.2 km/h 97% 0.0 mm 0 W/m2
06:21 12.6 °C 12.2 °C 1021.6 hPa NNW 8.7 km/h 11.1 km/h 97% 0.0 mm 0 W/m2
06:26 12.5 °C 12.1 °C 1021.6 hPa NNW 8.7 km/h 13.4 km/h 97% 0.0 mm 0 W/m2
06:31 12.5 °C 12.1 °C 1021.6 hPa NNW 3.5 km/h 13.4 km/h 97% 0.0 mm 0 W/m2
06:36 12.5 °C 12.1 °C 1021.6 hPa NNW 7.2 km/h 13.4 km/h 97% 0.0 mm 0 W/m2
06:41 12.4 °C 11.9 °C 1021.6 hPa NNW 7.2 km/h 13.4 km/h 97% 0.0 mm 0 W/m2
06:46 12.4 °C 11.9 °C 1021.6 hPa NNW 5.0 km/h 12.2 km/h 97% 0.0 mm 0 W/m2
06:51 12.4 °C 11.9 °C 1021.6 hPa NNW 7.2 km/h 12.2 km/h 97% 0.0 mm 0 W/m2
06:56 12.4 °C 11.9 °C 1021.6 hPa NNW 7.2 km/h 12.2 km/h 97% 0.0 mm 0 W/m2
07:01 12.4 °C 11.9 °C 1021.6 hPa NNW 8.7 km/h 11.1 km/h 97% 0.0 mm 0 W/m2
07:06 12.3 °C 11.8 °C 1021.2 hPa NNW 6.1 km/h 11.1 km/h 97% 0.0 mm 0 W/m2
07:11 12.4 °C 11.9 °C 1021.6 hPa NNW 5.0 km/h 13.4 km/h 97% 0.0 mm 2 W/m2
07:16 12.4 °C 11.9 °C 1021.2 hPa NNW 8.7 km/h 13.4 km/h 97% 0.0 mm 5 W/m2
07:21 12.3 °C 11.8 °C 1021.2 hPa NNW 9.7 km/h 13.4 km/h 97% 0.0 mm 10 W/m2
07:26 12.3 °C 11.8 °C 1021.2 hPa NW 7.2 km/h 13.4 km/h 97% 0.0 mm 13 W/m2
07:31 12.3 °C 11.8 °C 1021.2 hPa NNW 7.2 km/h 13.4 km/h 97% 0.0 mm 16 W/m2
07:36 12.2 °C 11.7 °C 1021.2 hPa NNW 8.7 km/h 13.4 km/h 97% 0.0 mm 30 W/m2
07:41 12.4 °C 11.9 °C 1021.2 hPa NNW 6.1 km/h 11.1 km/h 97% 0.0 mm 82 W/m2
07:46 12.7 °C 12.2 °C 1021.6 hPa NNW 5.0 km/h 11.1 km/h 97% 0.0 mm 99 W/m2
07:51 13.0 °C 12.8 °C 1021.6 hPa NW 7.2 km/h 12.2 km/h 99% 0.0 mm 116 W/m2
07:56 13.2 °C 13.1 °C 1021.6 hPa NNW 8.7 km/h 13.4 km/h 99% 0.0 mm 135 W/m2
08:01 13.4 °C 12.9 °C 1021.2 hPa NNW 8.7 km/h 13.4 km/h 97% 0.0 mm 153 W/m2
08:06 13.7 °C 13.1 °C 1021.2 hPa NNW 6.1 km/h 12.2 km/h 96% 0.0 mm 168 W/m2
08:11 14.0 °C 13.1 °C 1021.2 hPa North 5.0 km/h 12.2 km/h 94% 0.0 mm 179 W/m2
08:16 14.4 °C 13.3 °C 1021.2 hPa North 6.1 km/h 12.2 km/h 93% 0.0 mm 193 W/m2
08:21 14.8 °C 13.5 °C 1021.2 hPa NNW 6.1 km/h 9.7 km/h 92% 0.0 mm 206 W/m2
08:26 15.2 °C 13.4 °C 1021.2 hPa NNW 6.1 km/h 9.7 km/h 89% 0.0 mm 219 W/m2
08:31 15.6 °C 13.4 °C 1021.2 hPa NNW 6.1 km/h 9.7 km/h 87% 0.0 mm 231 W/m2
08:36 15.7 °C 13.4 °C 1021.2 hPa NW 5.0 km/h 9.7 km/h 86% 0.0 mm 243 W/m2
08:41 15.9 °C 13.4 °C 1021.2 hPa North 5.0 km/h 12.2 km/h 85% 0.0 mm 252 W/m2
08:45 16.2 °C 13.5 °C 1021.2 hPa North 6.1 km/h 12.2 km/h 84% 0.0 mm 261 W/m2
08:50 16.3 °C 13.4 °C 1020.9 hPa NNW 7.2 km/h 14.8 km/h 83% 0.0 mm 271 W/m2
08:55 16.5 °C 13.6 °C 1021.2 hPa North 7.2 km/h 14.8 km/h 83% 0.0 mm 269 W/m2
09:00 16.5 °C 13.4 °C 1021.2 hPa NNW 5.0 km/h 13.4 km/h 82% 0.0 mm 259 W/m2
09:05 16.7 °C 13.6 °C 1021.2 hPa NNW 3.5 km/h 12.2 km/h 82% 0.0 mm 262 W/m2
09:10 17.1 °C 13.8 °C 1021.6 hPa NNW 7.2 km/h 12.2 km/h 81% 0.0 mm 307 W/m2
09:15 17.2 °C 13.9 °C 1021.6 hPa NW 7.2 km/h 11.1 km/h 81% 0.0 mm 326 W/m2
09:20 17.4 °C 14.1 °C 1021.9 hPa NW 6.1 km/h 12.2 km/h 81% 0.0 mm 344 W/m2
09:25 17.6 °C 14.1 °C 1021.6 hPa NW 7.2 km/h 12.2 km/h 80% 0.0 mm 330 W/m2
09:30 17.6 °C 14.1 °C 1021.9 hPa NW 6.1 km/h 14.8 km/h 80% 0.0 mm 336 W/m2
09:35 18.1 °C 14.4 °C 1021.9 hPa NNW 2.6 km/h 14.8 km/h 79% 0.0 mm 332 W/m2
09:40 18.5 °C 14.6 °C 1021.9 hPa NNW 7.2 km/h 12.2 km/h 78% 0.0 mm 356 W/m2
09:45 18.7 °C 14.8 °C 1021.9 hPa NNW 2.6 km/h 12.2 km/h 78% 0.0 mm 292 W/m2
09:50 18.8 °C 14.7 °C 1021.9 hPa North 3.5 km/h 11.1 km/h 77% 0.0 mm 272 W/m2
09:55 18.9 °C 14.8 °C 1022.2 hPa NNW 3.5 km/h 9.7 km/h 77% 0.0 mm 218 W/m2
10:00 18.9 °C 14.8 °C 1022.2 hPa NW 1.1 km/h 9.7 km/h 77% 0.0 mm 166 W/m2
10:05 18.8 °C 14.7 °C 1021.9 hPa NW 2.6 km/h 8.7 km/h 77% 0.0 mm 240 W/m2
10:10 19.0 °C 14.9 °C 1021.9 hPa NW 5.0 km/h 8.7 km/h 77% 0.0 mm 326 W/m2
10:15 19.4 °C 15.1 °C 1022.2 hPa NW 6.1 km/h 9.7 km/h 76% 0.0 mm 267 W/m2
10:20 19.5 °C 15.2 °C 1022.2 hPa NNW 5.0 km/h 9.7 km/h 76% 0.0 mm 383 W/m2
10:25 20.0 °C 15.2 °C 1022.2 hPa NW 3.5 km/h 9.7 km/h 74% 0.0 mm 357 W/m2
10:30 20.5 °C 15.5 °C 1022.2 hPa NW 5.0 km/h 9.7 km/h 73% 0.0 mm 218 W/m2
10:35 20.6 °C 15.2 °C 1022.2 hPa NNW 3.5 km/h 11.1 km/h 71% 0.0 mm 452 W/m2
10:40 21.3 °C 15.6 °C 1022.6 hPa Calm   11.1 km/h 70% 0.0 mm 211 W/m2
10:45 22.2 °C 15.8 °C 1022.6 hPa NW 1.1 km/h 5.0 km/h 67% 0.0 mm 388 W/m2
10:50 22.3 °C 15.4 °C 1022.6 hPa Calm   6.1 km/h 65% 0.0 mm 235 W/m2
10:55 22.7 °C 15.6 °C 1022.6 hPa Calm   6.1 km/h 64% 0.0 mm 507 W/m2
11:00 22.5 °C 15.6 °C 1022.9 hPa SW 11.1 km/h 14.8 km/h 65% 0.0 mm 327 W/m2
11:05 21.2 °C 15.1 °C 1022.9 hPa WSW 11.1 km/h 14.8 km/h 68% 0.0 mm 309 W/m2
11:10 20.7 °C 15.9 °C 1022.9 hPa SW 13.4 km/h 17.2 km/h 74% 0.0 mm 241 W/m2
11:15 20.3 °C 15.7 °C 1022.9 hPa SW 11.1 km/h 18.3 km/h 75% 0.0 mm 473 W/m2
11:20 20.4 °C 16.4 °C 1022.9 hPa SW 9.7 km/h 18.3 km/h 78% 0.0 mm 417 W/m2
11:25 20.5 °C 16.6 °C 1022.9 hPa SW 11.1 km/h 17.2 km/h 78% 0.0 mm 394 W/m2
11:30 20.5 °C 16.7 °C 1022.9 hPa SW 11.1 km/h 17.2 km/h 79% 0.0 mm 452 W/m2
11:35 20.5 °C 16.1 °C 1022.9 hPa SW 9.7 km/h 18.3 km/h 76% 0.0 mm 421 W/m2
11:40 20.9 °C 16.1 °C 1023.2 hPa SW 11.1 km/h 18.3 km/h 74% 0.0 mm 561 W/m2
11:45 20.9 °C 16.5 °C 1023.2 hPa SSW 19.5 km/h 27.0 km/h 76% 0.0 mm 692 W/m2
11:47 20.6 °C 16.8 °C 1023.2 hPa SSW 11.1 km/h 27.0 km/h 79% 0.0 mm 487 W/m2
11:52 20.6 °C 17.6 °C 1023.2 hPa SW 18.3 km/h 27.0 km/h 83% 0.0 mm 432 W/m2
11:57 20.3 °C 17.3 °C 1023.6 hPa SW 18.3 km/h 23.3 km/h 83% 0.0 mm 416 W/m2
12:02 19.9 °C 16.2 °C 1023.6 hPa SW 14.8 km/h 24.5 km/h 79% 0.0 mm 453 W/m2
12:07 20.0 °C 16.1 °C 1023.6 hPa SW 7.2 km/h 24.5 km/h 78% 0.0 mm 298 W/m2
12:12 19.9 °C 15.9 °C 1023.6 hPa WSW 14.8 km/h 21.9 km/h 78% 0.0 mm 310 W/m2
12:17 19.5 °C 15.4 °C 1023.6 hPa WSW 8.7 km/h 19.5 km/h 77% 0.0 mm 358 W/m2
12:22 19.5 °C 15.4 °C 1023.6 hPa SW 12.2 km/h 19.5 km/h 77% 0.0 mm 334 W/m2
12:27 19.4 °C 15.3 °C 1023.9 hPa SW 11.1 km/h 24.5 km/h 77% 0.0 mm 479 W/m2
12:32 19.8 °C 15.9 °C 1023.9 hPa SW 15.8 km/h 24.5 km/h 78% 0.0 mm 759 W/m2
12:37 20.3 °C 15.9 °C 1023.9 hPa SW 13.4 km/h 21.9 km/h 76% 0.0 mm 638 W/m2
12:42 20.2 °C 15.7 °C 1024.3 hPa WSW 11.1 km/h 21.9 km/h 75% 0.0 mm 374 W/m2
12:47 20.1 °C 15.8 °C 1024.3 hPa SW 9.7 km/h 21.9 km/h 76% 0.0 mm 403 W/m2
12:52 20.2 °C 15.8 °C 1023.9 hPa SW 11.1 km/h 19.5 km/h 76% 0.0 mm 729 W/m2
12:57 20.8 °C 16.2 °C 1023.9 hPa SW 12.2 km/h 18.3 km/h 75% 0.0 mm 708 W/m2
13:02 20.9 °C 15.9 °C 1024.3 hPa SSW 11.1 km/h 18.3 km/h 73% 0.0 mm 614 W/m2
13:07 21.0 °C 15.8 °C 1024.3 hPa SSW 13.4 km/h 18.3 km/h 72% 0.0 mm 701 W/m2
13:12 20.7 °C 16.1 °C 1024.3 hPa SW 14.8 km/h 21.9 km/h 75% 0.0 mm 698 W/m2
13:17 20.8 °C 16.0 °C 1024.3 hPa SW 9.7 km/h 21.9 km/h 74% 0.0 mm 639 W/m2
13:22 21.0 °C 16.0 °C 1024.3 hPa SW 9.7 km/h 21.9 km/h 73% 0.0 mm 716 W/m2
13:27 21.1 °C 15.9 °C 1024.3 hPa SW 11.1 km/h 19.5 km/h 72% 0.0 mm 584 W/m2
13:32 21.3 °C 16.3 °C 1023.9 hPa SW 11.1 km/h 18.3 km/h 73% 0.0 mm 762 W/m2
13:37 21.6 °C 16.1 °C 1023.9 hPa SW 9.7 km/h 14.8 km/h 71% 0.0 mm 732 W/m2
13:42 22.0 °C 15.8 °C 1023.9 hPa SSW 9.7 km/h 14.8 km/h 68% 0.0 mm 729 W/m2
13:44 22.0 °C 15.4 °C 1023.9 hPa SSW 8.7 km/h 17.2 km/h 66% 0.0 mm 730 W/m2
13:54 22.1 °C 15.4 °C 1024.3 hPa SW 3.5 km/h 17.2 km/h 66% 0.0 mm 756 W/m2
13:59 22.4 °C 15.5 °C 1024.3 hPa SW 9.7 km/h 15.8 km/h 65% 0.0 mm 773 W/m2
14:04 22.3 °C 15.2 °C 1024.3 hPa SSW 14.8 km/h 18.3 km/h 64% 0.0 mm 773 W/m2
14:09 22.2 °C 15.1 °C 1023.9 hPa SSW 12.2 km/h 19.5 km/h 64% 0.0 mm 684 W/m2
14:14 21.9 °C 15.5 °C 1024.3 hPa SSW 9.7 km/h 19.5 km/h 67% 0.0 mm 541 W/m2
14:19 22.3 °C 15.7 °C 1024.3 hPa SSW 12.2 km/h 17.2 km/h 66% 0.0 mm 612 W/m2
14:24 22.1 °C 15.0 °C 1023.9 hPa SSW 9.7 km/h 17.2 km/h 64% 0.0 mm 593 W/m2
14:29 21.9 °C 15.3 °C 1023.9 hPa SSW 7.2 km/h 17.2 km/h 66% 0.0 mm 355 W/m2
14:34 21.6 °C 14.8 °C 1023.9 hPa SSW 8.7 km/h 15.8 km/h 65% 0.0 mm 421 W/m2
14:39 21.2 °C 14.4 °C 1023.9 hPa SSW 14.8 km/h 19.5 km/h 65% 0.0 mm 304 W/m2
14:44 21.0 °C 14.2 °C 1023.9 hPa SSW 12.2 km/h 19.5 km/h 65% 0.0 mm 276 W/m2
14:49 20.8 °C 14.7 °C 1023.6 hPa SSW 12.2 km/h 19.5 km/h 68% 0.0 mm 375 W/m2
14:54 21.1 °C 14.7 °C 1023.9 hPa SSW 9.7 km/h 18.3 km/h 67% 0.0 mm 374 W/m2
14:59 21.1 °C 14.7 °C 1023.9 hPa South 9.7 km/h 18.3 km/h 67% 0.0 mm 340 W/m2
15:04 21.3 °C 14.9 °C 1023.9 hPa South 14.8 km/h 18.3 km/h 67% 0.0 mm 262 W/m2
15:09 20.9 °C 14.8 °C 1023.6 hPa SSW 9.7 km/h 24.5 km/h 68% 0.0 mm 286 W/m2
15:14 20.6 °C 14.7 °C 1023.9 hPa SSW 21.9 km/h 30.6 km/h 69% 0.0 mm 177 W/m2
15:19 19.9 °C 14.7 °C 1023.9 hPa SSW 18.3 km/h 30.6 km/h 72% 0.0 mm 288 W/m2
15:24 19.8 °C 14.8 °C 1024.3 hPa SSW 21.9 km/h 33.1 km/h 73% 0.0 mm 196 W/m2
15:29 19.5 °C 14.8 °C 1024.3 hPa SSW 18.3 km/h 37.8 km/h 74% 0.0 mm 183 W/m2
15:34 19.3 °C 14.8 °C 1023.9 hPa SSW 21.9 km/h 39.3 km/h 75% 0.0 mm 221 W/m2
15:39 19.3 °C 15.0 °C 1024.3 hPa SSW 23.3 km/h 43.9 km/h 76% 0.0 mm 266 W/m2
15:44 19.4 °C 15.3 °C 1024.3 hPa SW 21.9 km/h 43.9 km/h 77% 0.0 mm 224 W/m2
15:49 19.3 °C 15.2 °C 1024.3 hPa SW 30.6 km/h 39.3 km/h 77% 0.0 mm 254 W/m2
15:54 19.1 °C 15.2 °C 1024.3 hPa SSW 25.6 km/h 45.4 km/h 78% 0.0 mm 198 W/m2
15:59 19.0 °C 15.3 °C 1024.3 hPa SSW 23.3 km/h 45.4 km/h 79% 0.0 mm 198 W/m2
16:04 19.0 °C 15.3 °C 1024.3 hPa SSW 25.6 km/h 43.9 km/h 79% 0.0 mm 167 W/m2
16:09 18.7 °C 15.4 °C 1024.6 hPa SSW 15.8 km/h 40.4 km/h 81% 0.0 mm 149 W/m2
16:14 18.6 °C 15.5 °C 1024.3 hPa SW 23.3 km/h 34.3 km/h 82% 0.0 mm 75 W/m2
16:19 18.3 °C 15.0 °C 1024.3 hPa SSW 20.9 km/h 36.7 km/h 81% 0.0 mm 79 W/m2
16:24 18.1 °C 15.0 °C 1024.3 hPa SW 19.5 km/h 39.3 km/h 82% 0.0 mm 66 W/m2
16:29 18.1 °C 15.4 °C 1024.6 hPa SW 21.9 km/h 39.3 km/h 84% 0.0 mm 44 W/m2
16:34 17.9 °C 15.0 °C 1024.6 hPa SW 20.9 km/h 34.3 km/h 83% 0.0 mm 55 W/m2
16:39 17.9 °C 15.2 °C 1024.6 hPa SW 21.9 km/h 34.3 km/h 84% 0.0 mm 50 W/m2
16:44 17.8 °C 15.3 °C 1024.3 hPa SW 15.8 km/h 33.1 km/h 85% 0.0 mm 46 W/m2
16:49 17.7 °C 15.2 °C 1024.6 hPa SW 18.3 km/h 39.3 km/h 85% 0.0 mm 41 W/m2
16:55 17.8 °C 15.1 °C 1024.6 hPa SW 20.9 km/h 40.4 km/h 84% 0.0 mm 52 W/m2
17:00 17.8 °C 15.3 °C 1024.6 hPa SW 23.3 km/h 40.4 km/h 85% 0.0 mm 45 W/m2
17:05 17.8 °C 15.3 °C 1024.6 hPa SW 20.9 km/h 39.3 km/h 85% 0.0 mm 43 W/m2
17:10 17.8 °C 15.3 °C 1024.6 hPa SW 27.0 km/h 41.7 km/h 85% 0.0 mm 54 W/m2
17:15 17.9 °C 15.3 °C 1024.6 hPa SW 20.9 km/h 41.7 km/h 85% 0.0 mm 66 W/m2
17:20 17.9 °C 15.3 °C 1024.9 hPa SW 30.6 km/h 40.4 km/h 85% 0.0 mm 56 W/m2
17:25 17.9 °C 15.3 °C 1024.6 hPa SSW 21.9 km/h 43.9 km/h 85% 0.0 mm 60 W/m2
17:30 17.9 °C 15.3 °C 1024.9 hPa SSW 23.3 km/h 43.9 km/h 85% 0.0 mm 45 W/m2
17:35 17.8 °C 15.4 °C 1024.9 hPa SSW 19.5 km/h 36.7 km/h 86% 0.0 mm 49 W/m2
17:40 17.6 °C 15.2 °C 1024.9 hPa SW 19.5 km/h 45.4 km/h 86% 0.0 mm 14 W/m2
17:45 17.6 °C 15.4 °C 1024.9 hPa SW 18.3 km/h 45.4 km/h 87% 0.0 mm 23 W/m2
17:50 17.6 °C 15.4 °C 1024.9 hPa SW 25.6 km/h 43.9 km/h 87% 0.0 mm 35 W/m2
17:55 17.6 °C 15.4 °C 1024.9 hPa SW 27.0 km/h 42.8 km/h 87% 0.0 mm 23 W/m2
18:00 17.6 °C 15.2 °C 1024.9 hPa SSW 17.2 km/h 47.9 km/h 86% 0.0 mm 21 W/m2
18:06 17.6 °C 15.4 °C 1025.3 hPa SW 24.5 km/h 47.9 km/h 87% 0.0 mm 19 W/m2
18:11 17.6 °C 15.4 °C 1025.3 hPa SW 25.6 km/h 41.7 km/h 87% 0.0 mm 20 W/m2
18:16 17.6 °C 15.4 °C 1024.9 hPa SW 21.9 km/h 36.7 km/h 87% 0.0 mm 14 W/m2
18:21 17.5 °C 15.2 °C 1025.3 hPa SW 28.0 km/h 36.7 km/h 86% 0.0 mm 13 W/m2
18:26 17.5 °C 15.2 °C 1025.3 hPa SSW 19.5 km/h 39.3 km/h 86% 0.0 mm 9 W/m2
18:31 17.5 °C 15.3 °C 1025.3 hPa SW 17.2 km/h 40.4 km/h 87% 0.0 mm 4 W/m2
18:36 17.3 °C 15.3 °C 1025.3 hPa SSW 21.9 km/h 40.4 km/h 88% 0.0 mm 13 W/m2
18:41 17.3 °C 15.3 °C 1025.3 hPa SSW 21.9 km/h 39.3 km/h 88% 0.0 mm 8 W/m2
18:46 17.2 °C 15.2 °C 1025.3 hPa SSW 24.5 km/h 39.3 km/h 88% 0.0 mm 7 W/m2
18:51 17.2 °C 15.0 °C 1025.3 hPa SW 20.9 km/h 45.4 km/h 87% 0.0 mm 5 W/m2
18:56 17.2 °C 14.8 °C 1025.3 hPa SW 21.9 km/h 45.4 km/h 86% 0.0 mm 8 W/m2
19:01 17.3 °C 14.9 °C 1025.3 hPa SW 18.3 km/h 37.8 km/h 86% 0.0 mm 6 W/m2
19:06 17.2 °C 14.8 °C 1025.3 hPa SSW 19.5 km/h 36.7 km/h 86% 0.0 mm 3 W/m2
19:11 17.2 °C 14.8 °C 1025.6 hPa SSW 20.9 km/h 36.7 km/h 86% 0.0 mm 2 W/m2
19:16 17.0 °C 15.0 °C 1025.3 hPa SSW 19.5 km/h 35.6 km/h 88% 0.0 mm 0 W/m2
19:21 17.0 °C 15.0 °C 1025.6 hPa SW 19.5 km/h 34.3 km/h 88% 0.0 mm 0 W/m2
19:26 17.1 °C 14.9 °C 1025.3 hPa SSW 17.2 km/h 40.4 km/h 87% 0.0 mm 0 W/m2
19:31 17.2 °C 14.8 °C 1025.6 hPa SSW 28.0 km/h 40.4 km/h 86% 0.0 mm 0 W/m2
19:36 17.3 °C 14.9 °C 1025.6 hPa SSW 25.6 km/h 39.3 km/h 86% 0.0 mm 0 W/m2
19:41 17.2 °C 14.7 °C 1026.0 hPa SSW 18.3 km/h 39.3 km/h 85% 0.0 mm 0 W/m2
19:47 17.1 °C 14.6 °C 1026.0 hPa SSW 19.5 km/h 35.6 km/h 85% 0.0 mm 0 W/m2
19:52 17.0 °C 14.7 °C 1026.0 hPa SSW 21.9 km/h 34.3 km/h 86% 0.0 mm 0 W/m2
19:57 17.0 °C 14.8 °C 1026.0 hPa SSW 20.9 km/h 34.3 km/h 87% 0.0 mm 0 W/m2
20:02 17.0 °C 14.8 °C 1026.0 hPa SSW 20.9 km/h 34.3 km/h 87% 0.0 mm 0 W/m2
20:07 17.0 °C 15.0 °C 1026.0 hPa SSW 18.3 km/h 33.1 km/h 88% 0.0 mm 0 W/m2
20:12 17.0 °C 15.0 °C 1026.0 hPa SSW 18.3 km/h 35.6 km/h 88% 0.0 mm 0 W/m2
20:17 16.9 °C 15.1 °C 1026.0 hPa SSW 23.3 km/h 35.6 km/h 89% 0.0 mm 0 W/m2
20:22 16.9 °C 15.1 °C 1026.0 hPa SW 19.5 km/h 34.3 km/h 89% 0.0 mm 0 W/m2
20:27 16.8 °C 14.8 °C 1026.3 hPa SSW 19.5 km/h 39.3 km/h 88% 0.0 mm 0 W/m2
20:32 16.8 °C 15.0 °C 1026.3 hPa SSW 20.9 km/h 39.3 km/h 89% 0.0 mm 0 W/m2
20:37 16.7 °C 14.9 °C 1026.3 hPa SSW 15.8 km/h 45.4 km/h 89% 0.0 mm 0 W/m2
20:42 16.8 °C 14.8 °C 1026.3 hPa SSW 15.8 km/h 45.4 km/h 88% 0.0 mm 0 W/m2
20:47 16.9 °C 14.7 °C 1026.3 hPa SSW 17.2 km/h 37.8 km/h 87% 0.0 mm 0 W/m2
20:52 17.0 °C 14.4 °C 1026.3 hPa SSW 20.9 km/h 39.3 km/h 85% 0.0 mm 0 W/m2
20:57 17.0 °C 14.3 °C 1026.6 hPa SSW 27.0 km/h 46.5 km/h 84% 0.0 mm 0 W/m2
21:02 16.9 °C 14.4 °C 1026.6 hPa SSW 24.5 km/h 46.5 km/h 85% 0.0 mm 0 W/m2
21:07 16.7 °C 14.6 °C 1026.6 hPa SSW 14.8 km/h 36.7 km/h 87% 0.0 mm 0 W/m2
21:12 16.7 °C 14.3 °C 1026.6 hPa SW 28.0 km/h 39.3 km/h 86% 0.3 mm 0 W/m2
21:17 16.9 °C 14.4 °C 1026.6 hPa SW 15.8 km/h 40.4 km/h 85% 0.3 mm 0 W/m2
21:22 17.0 °C 14.3 °C 1026.6 hPa SSW 25.6 km/h 40.4 km/h 84% 0.3 mm 0 W/m2
21:27 17.0 °C 14.1 °C 1027.0 hPa SSW 28.0 km/h 35.6 km/h 83% 0.3 mm 0 W/m2
21:32 16.9 °C 14.2 °C 1027.0 hPa SSW 20.9 km/h 42.8 km/h 84% 0.3 mm 0 W/m2
21:37 16.7 °C 14.0 °C 1027.0 hPa SSW 13.4 km/h 42.8 km/h 84% 0.3 mm 0 W/m2
21:42 16.7 °C 14.0 °C 1027.0 hPa SW 21.9 km/h 42.8 km/h 84% 0.3 mm 0 W/m2
21:47 16.5 °C 13.8 °C 1027.0 hPa SW 24.5 km/h 36.7 km/h 84% 0.3 mm 0 W/m2
21:52 16.4 °C 13.7 °C 1027.0 hPa SW 23.3 km/h 36.7 km/h 84% 0.3 mm 0 W/m2
21:57 16.4 °C 13.9 °C 1027.3 hPa SW 23.3 km/h 39.3 km/h 85% 0.3 mm 0 W/m2
22:02 16.4 °C 13.9 °C 1027.0 hPa SW 19.5 km/h 39.3 km/h 85% 0.3 mm 0 W/m2
22:07 16.5 °C 13.8 °C 1027.3 hPa SSW 19.5 km/h 37.8 km/h 84% 0.3 mm 0 W/m2
22:12 16.6 °C 14.1 °C 1027.7 hPa SW 23.3 km/h 36.7 km/h 85% 0.0 mm 0 W/m2
22:17 16.6 °C 13.7 °C 1027.3 hPa SSW 25.6 km/h 37.8 km/h 83% 0.0 mm 0 W/m2
22:22 16.6 °C 13.7 °C 1027.3 hPa SSW 18.3 km/h 37.8 km/h 83% 0.0 mm 0 W/m2
22:27 16.5 °C 13.6 °C 1027.3 hPa SSW 20.9 km/h 36.7 km/h 83% 0.0 mm 0 W/m2
22:32 16.4 °C 13.7 °C 1027.7 hPa SW 14.8 km/h 35.6 km/h 84% 0.0 mm 0 W/m2
22:37 16.3 °C 13.6 °C 1027.3 hPa SW 14.8 km/h 39.3 km/h 84% 0.0 mm 0 W/m2
22:42 16.2 °C 13.5 °C 1027.7 hPa SW 20.9 km/h 39.3 km/h 84% 0.0 mm 0 W/m2
22:58 16.2 °C 13.7 °C 1027.7 hPa SW 11.1 km/h 37.8 km/h 85% 0.0 mm 0 W/m2
23:03 16.1 °C 13.8 °C 1027.7 hPa SSW 23.3 km/h 39.3 km/h 86% 0.0 mm 0 W/m2
23:08 16.1 °C 13.9 °C 1027.7 hPa SSW 14.8 km/h 39.3 km/h 87% 0.0 mm 0 W/m2
23:13 16.2 °C 14.1 °C 1027.7 hPa SW 18.3 km/h 39.3 km/h 87% 0.0 mm 0 W/m2
23:18 16.4 °C 13.5 °C 1027.7 hPa SSW 14.8 km/h 31.7 km/h 83% 0.0 mm 0 W/m2
23:23 16.6 °C 13.5 °C 1027.7 hPa SSW 19.5 km/h 31.7 km/h 82% 0.0 mm 0 W/m2
23:28 16.5 °C 13.4 °C 1027.7 hPa SSW 19.5 km/h 29.4 km/h 82% 0.0 mm 0 W/m2
23:33 16.4 °C 13.3 °C 1027.7 hPa SSW 21.9 km/h 31.7 km/h 82% 0.0 mm 0 W/m2
23:38 16.7 °C 12.8 °C 1027.7 hPa SSW 17.2 km/h 34.3 km/h 78% 0.0 mm 0 W/m2
23:43 16.7 °C 13.1 °C 1028.0 hPa SSW 18.3 km/h 34.3 km/h 79% 0.0 mm 0 W/m2
23:48 16.2 °C 13.1 °C 1028.0 hPa SW 19.5 km/h 34.3 km/h 82% 0.0 mm 0 W/m2
23:53 15.9 °C 13.2 °C 1028.0 hPa SW 18.3 km/h 34.3 km/h 84% 0.0 mm 0 W/m2
23:58 15.9 °C 13.4 °C 1027.7 hPa SW 24.5 km/h 36.7 km/h 85% 0.0 mm 0 W/m2
Northern Hawkes Bay. New Zealand Historic Data
Compliments of Weather Underground - 2 mb